createdAt,value
2019-02-20T00:00:41.680Z,6.43
2019-02-20T00:06:00.316Z,6.57
2019-02-20T00:11:18.870Z,7.40
2019-02-20T00:16:37.519Z,6.30
2019-02-20T00:21:56.149Z,8.10
2019-02-20T00:27:14.714Z,6.67
2019-02-20T00:32:33.270Z,6.13
2019-02-20T00:37:51.815Z,7.63
2019-02-20T00:43:10.642Z,7.90
2019-02-20T00:48:39.504Z,7.13
2019-02-20T00:53:59.631Z,7.57
2019-02-20T00:59:18.261Z,7.70
2019-02-20T01:04:37.202Z,7.80
2019-02-20T01:09:55.705Z,7.67
2019-02-20T01:15:14.270Z,6.97
2019-02-20T01:20:32.894Z,7.60
2019-02-20T01:25:51.362Z,7.10
2019-02-20T01:31:09.975Z,7.73
2019-02-20T01:36:28.517Z,8.03
2019-02-20T01:41:46.980Z,8.00
2019-02-20T01:47:05.612Z,8.27
2019-02-20T01:52:24.149Z,7.80
2019-02-20T01:57:42.765Z,8.17
2019-02-20T02:03:01.399Z,6.80
2019-02-20T02:08:20.015Z,8.10
2019-02-20T02:13:38.521Z,7.63
2019-02-20T02:18:57.141Z,7.87
2019-02-20T02:24:15.756Z,7.90
2019-02-20T02:29:34.400Z,7.40
2019-02-20T02:34:53.016Z,7.83
2019-02-20T02:40:11.710Z,7.83
2019-02-20T02:45:30.265Z,7.87
2019-02-20T02:50:49.647Z,7.43
2019-02-20T02:56:08.281Z,9.70
2019-02-20T03:01:26.904Z,7.47
2019-02-20T03:06:45.528Z,8.17
2019-02-20T03:12:04.140Z,7.33
2019-02-20T03:17:22.753Z,8.00
2019-02-20T03:22:41.245Z,6.63
2019-02-20T03:27:59.882Z,6.90
2019-02-20T03:33:18.424Z,6.70
2019-02-20T03:38:37.454Z,7.60
2019-02-20T03:43:56.044Z,7.17
2019-02-20T03:49:14.585Z,6.97
2019-02-20T03:54:33.281Z,7.27
2019-02-20T03:59:51.899Z,6.23
2019-02-20T04:05:10.796Z,6.67
2019-02-20T04:10:29.411Z,6.70
2019-02-20T04:15:47.884Z,6.10
2019-02-20T04:21:06.482Z,5.93
2019-02-20T04:26:24.948Z,7.33
2019-02-20T04:31:43.649Z,6.70
2019-02-20T04:37:02.274Z,6.60
2019-02-20T04:42:21.162Z,6.43
2019-02-20T04:47:39.784Z,6.77
2019-02-20T04:52:58.483Z,5.72
2019-02-20T04:58:19.284Z,6.57
2019-02-20T05:03:37.818Z,6.87
2019-02-20T05:08:56.447Z,6.97
2019-02-20T05:14:15.055Z,6.53
2019-02-20T05:19:33.749Z,5.57
2019-02-20T05:24:52.294Z,7.47
2019-02-20T05:30:10.939Z,7.23
2019-02-20T05:35:29.750Z,7.07
2019-02-20T05:40:48.365Z,7.00
2019-02-20T05:46:08.058Z,6.77
2019-02-20T05:51:26.758Z,5.43
2019-02-20T05:56:45.249Z,7.03
2019-02-20T06:02:03.863Z,7.50
2019-02-20T06:07:22.479Z,6.07
2019-02-20T06:12:41.095Z,7.33
2019-02-20T06:17:59.646Z,7.90
2019-02-20T06:23:18.251Z,7.53
2019-02-20T06:28:36.792Z,6.93
2019-02-20T06:33:55.372Z,8.40
2019-02-20T06:39:14.707Z,7.40
2019-02-20T06:44:33.182Z,7.03
2019-02-20T06:49:52.796Z,7.33
2019-02-20T06:55:12.550Z,7.67
2019-02-20T07:00:31.089Z,8.10
2019-02-20T07:05:50.818Z,7.13
2019-02-20T07:11:24.327Z,7.67
2019-02-20T07:17:06.822Z,8.60
2019-02-20T07:22:37.459Z,6.50
2019-02-20T07:27:58.993Z,7.93
2019-02-20T07:33:17.596Z,8.33
2019-02-20T07:38:36.070Z,8.47
2019-02-20T07:43:54.615Z,9.13
2019-02-20T07:49:13.185Z,8.27
2019-02-20T07:54:31.731Z,9.10
2019-02-20T07:59:50.276Z,8.80
2019-02-20T08:05:08.891Z,8.70
2019-02-20T08:10:27.522Z,9.03
2019-02-20T08:15:46.182Z,9.43
2019-02-20T08:21:04.804Z,9.37
2019-02-20T08:26:23.623Z,9.67
2019-02-20T08:31:42.210Z,11.43
2019-02-20T08:37:00.765Z,11.07
2019-02-20T08:42:19.394Z,10.23
2019-02-20T08:47:37.959Z,11.57
2019-02-20T08:52:56.444Z,11.78
2019-02-20T08:58:14.991Z,12.50
2019-02-20T09:03:33.570Z,13.27
2019-02-20T09:08:52.057Z,13.90
2019-02-20T09:14:10.689Z,12.67
2019-02-20T09:19:29.253Z,12.13
2019-02-20T09:24:47.972Z,13.53
2019-02-20T09:30:09.508Z,11.67
2019-02-20T09:35:27.985Z,12.20
2019-02-20T09:40:46.611Z,11.10
2019-02-20T09:46:05.221Z,11.90
2019-02-20T09:51:23.840Z,11.83
2019-02-20T09:56:42.408Z,11.20
2019-02-20T10:02:01.164Z,10.13
2019-02-20T10:07:19.788Z,10.10
2019-02-20T10:12:38.696Z,10.50
2019-02-20T10:17:57.260Z,9.93
2019-02-20T10:23:15.828Z,10.73
2019-02-20T10:28:34.415Z,10.98
2019-02-20T10:33:53.216Z,11.73
2019-02-20T10:39:11.769Z,13.30
2019-02-20T10:44:30.348Z,12.90
2019-02-20T10:49:48.835Z,14.93
2019-02-20T10:55:08.955Z,15.77
2019-02-20T11:00:30.655Z,16.50
2019-02-20T11:05:49.215Z,16.90
2019-02-20T11:11:07.770Z,17.60
2019-02-20T11:16:26.246Z,14.47
2019-02-20T11:21:44.870Z,15.23
2019-02-20T11:27:03.435Z,14.50
2019-02-20T11:32:22.068Z,14.50
2019-02-20T11:37:40.680Z,13.80
2019-02-20T11:42:59.220Z,13.70
2019-02-20T11:48:17.734Z,12.87
2019-02-20T11:53:37.378Z,10.77
2019-02-20T11:58:56.125Z,12.93
2019-02-20T12:04:14.747Z,13.00
2019-02-20T12:09:33.364Z,13.70
2019-02-20T12:14:51.988Z,11.60
2019-02-20T12:20:10.723Z,11.10
2019-02-20T12:25:29.265Z,11.17
2019-02-20T12:30:47.829Z,8.63
2019-02-20T12:36:06.446Z,8.40
2019-02-20T12:41:25.063Z,8.00
2019-02-20T12:46:43.690Z,6.13
2019-02-20T12:52:02.320Z,4.97
2019-02-20T12:57:20.947Z,4.87
2019-02-20T13:02:39.568Z,4.70
2019-02-20T13:07:58.178Z,4.83
2019-02-20T13:13:16.725Z,4.87
2019-02-20T13:18:35.352Z,4.87
2019-02-20T13:23:53.898Z,4.70
2019-02-20T13:29:12.457Z,3.70
2019-02-20T13:34:31.103Z,4.57
2019-02-20T13:39:49.587Z,3.20
2019-02-20T13:45:10.079Z,3.57
2019-02-20T13:50:28.706Z,3.20
2019-02-20T13:55:47.333Z,3.27
2019-02-20T14:01:05.870Z,3.50
2019-02-20T14:06:24.366Z,3.43
2019-02-20T14:11:43.924Z,3.77
2019-02-20T14:17:02.516Z,4.10
2019-02-20T14:22:21.056Z,4.03
2019-02-20T14:27:39.686Z,4.17
2019-02-20T14:32:58.260Z,3.80
2019-02-20T14:38:16.751Z,4.90
2019-02-20T14:43:35.300Z,3.50
2019-02-20T14:48:54.132Z,4.10
2019-02-20T14:54:12.758Z,5.30
2019-02-20T14:59:31.522Z,5.03
2019-02-20T15:04:50.166Z,5.10
2019-02-20T15:10:09.991Z,5.20
2019-02-20T15:15:28.651Z,5.90
2019-02-20T15:20:48.844Z,6.10
2019-02-20T15:26:07.467Z,5.83
2019-02-20T15:31:33.545Z,5.33
2019-02-20T15:36:46.452Z,4.37
2019-02-20T15:42:05.084Z,4.97
2019-02-20T15:47:23.729Z,5.67
2019-02-20T15:52:42.286Z,4.43
2019-02-20T15:58:01.109Z,4.73
2019-02-20T16:03:19.755Z,4.00
2019-02-20T16:08:38.386Z,4.45
2019-02-20T16:13:57.006Z,5.30
2019-02-20T16:19:15.582Z,5.10
2019-02-20T16:24:34.524Z,5.73
2019-02-20T16:29:53.162Z,5.60
2019-02-20T16:35:12.210Z,8.97
2019-02-20T16:40:30.860Z,6.37
2019-02-20T16:45:49.487Z,6.47
2019-02-20T16:51:20.310Z,6.33
2019-02-20T16:56:38.842Z,5.83
2019-02-20T17:01:57.463Z,6.07
2019-02-20T17:07:18.138Z,6.77
2019-02-20T17:12:37.465Z,12.53
2019-02-20T17:17:56.243Z,6.90
2019-02-20T17:23:14.865Z,7.37
2019-02-20T17:28:35.142Z,6.90
2019-02-20T17:33:53.693Z,7.10
2019-02-20T17:39:12.346Z,7.47
2019-02-20T17:44:31.113Z,7.30
2019-02-20T17:49:49.672Z,7.30
2019-02-20T17:55:09.867Z,8.30
2019-02-20T18:00:33.717Z,7.80
2019-02-20T18:05:52.565Z,7.97
2019-02-20T18:11:11.072Z,8.47
2019-02-20T18:16:29.630Z,8.27
2019-02-20T18:21:48.200Z,8.40
2019-02-20T18:27:06.820Z,9.10
2019-02-20T18:32:25.719Z,8.97
2019-02-20T18:37:44.347Z,8.60
2019-02-20T18:43:02.982Z,9.27
2019-02-20T18:48:21.603Z,8.80
2019-02-20T18:53:40.159Z,9.08
2019-02-20T18:58:58.777Z,9.27
2019-02-20T19:04:17.909Z,10.13
2019-02-20T19:09:36.534Z,10.20
2019-02-20T19:15:13.227Z,9.53
2019-02-20T19:20:50.977Z,10.07
2019-02-20T19:26:12.507Z,10.70
2019-02-20T19:31:42.768Z,11.40
2019-02-20T19:37:04.289Z,9.87
2019-02-20T19:42:28.550Z,11.23
2019-02-20T19:48:09.320Z,11.90
2019-02-20T19:53:53.787Z,11.37
2019-02-20T19:59:30.573Z,11.17
2019-02-20T20:05:01.253Z,11.73
2019-02-20T20:10:51.622Z,11.25
2019-02-20T20:16:42.117Z,11.30
2019-02-20T20:22:18.236Z,11.60
2019-02-20T20:27:52.056Z,14.50
2019-02-20T20:33:46.986Z,11.53
2019-02-20T20:39:15.260Z,13.23
2019-02-20T20:44:55.854Z,14.97
2019-02-20T20:50:17.433Z,12.33
2019-02-20T20:56:01.649Z,13.33
2019-02-20T21:01:43.942Z,11.97
2019-02-20T21:07:17.379Z,14.30
2019-02-20T21:13:10.617Z,14.10
2019-02-20T21:18:56.163Z,13.80
2019-02-20T21:24:26.531Z,14.50
2019-02-20T21:30:07.314Z,13.03
2019-02-20T21:35:37.431Z,12.37
2019-02-20T21:41:08.025Z,11.60
2019-02-20T21:46:48.827Z,13.37
2019-02-20T21:52:25.033Z,12.50
2019-02-20T21:57:48.349Z,12.10
2019-02-20T22:03:18.717Z,12.00
2019-02-20T22:08:50.204Z,12.27
2019-02-20T22:14:31.341Z,11.27
2019-02-20T22:20:10.449Z,11.53
2019-02-20T22:25:47.318Z,12.27
2019-02-20T22:31:43.959Z,11.37
2019-02-20T22:37:08.073Z,11.17
2019-02-20T22:42:38.667Z,10.80
2019-02-20T22:48:03.135Z,12.67
2019-02-20T22:54:01.274Z,11.97
2019-02-20T22:59:31.636Z,12.67
2019-02-20T23:04:58.941Z,11.43
2019-02-20T23:10:26.692Z,11.68
2019-02-20T23:15:45.249Z,13.40
2019-02-20T23:21:05.331Z,9.77
2019-02-20T23:26:23.963Z,13.57
2019-02-20T23:31:42.904Z,12.98
2019-02-20T23:37:01.457Z,12.80
2019-02-20T23:42:20.101Z,12.93
2019-02-20T23:47:38.875Z,12.37
2019-02-20T23:52:57.505Z,13.07
2019-02-20T23:58:16.016Z,12.63
